createdAt,value
2022-11-25T00:01:41.813Z,100409.34
2022-11-25T00:04:11.197Z,100409.34
2022-11-25T00:06:47.236Z,100402.27
2022-11-25T00:09:17.022Z,100404.17
2022-11-25T00:11:47.164Z,100404.88
2022-11-25T00:14:18.432Z,100407.28
2022-11-25T00:16:48.813Z,100409.33
2022-11-25T00:19:18.245Z,100408.30
2022-11-25T00:21:47.445Z,100408.11
2022-11-25T00:24:19.343Z,100406.40
2022-11-25T00:26:50.146Z,100407.94
2022-11-25T00:29:19.338Z,100411.02
2022-11-25T00:31:48.468Z,100409.14
2022-11-25T00:34:17.767Z,100407.92
2022-11-25T00:36:56.770Z,100412.56
2022-11-25T00:39:30.370Z,100416.55
2022-11-25T00:42:28.180Z,100422.08
2022-11-25T00:44:57.318Z,100425.52
2022-11-25T00:47:29.551Z,100427.60
2022-11-25T00:49:58.794Z,100427.09
2022-11-25T00:52:30.302Z,100430.17
2022-11-25T00:55:03.591Z,100428.63
2022-11-25T00:57:34.155Z,100429.50
2022-11-25T01:00:05.940Z,100432.27
2022-11-25T01:02:38.503Z,100430.20
2022-11-25T01:05:10.510Z,100430.52
2022-11-25T01:07:39.587Z,100432.96
2022-11-25T01:10:09.394Z,100432.77
2022-11-25T01:12:40.784Z,100432.94
2022-11-25T01:15:10.478Z,100432.76
2022-11-25T01:17:39.689Z,100432.74
2022-11-25T01:20:11.642Z,100430.85
2022-11-25T01:22:41.830Z,100432.04
2022-11-25T01:25:11.353Z,100430.84
2022-11-25T01:27:43.229Z,100432.41
2022-11-25T01:30:13.724Z,100435.15
2022-11-25T01:32:42.966Z,100433.94
2022-11-25T01:35:14.243Z,100433.23
2022-11-25T01:37:43.392Z,100433.39
2022-11-25T01:40:15.831Z,100435.80
2022-11-25T01:42:49.485Z,100431.71
2022-11-25T01:45:35.103Z,100428.11
2022-11-25T01:48:18.843Z,100429.31
2022-11-25T01:50:49.904Z,100431.73
2022-11-25T01:53:21.591Z,100435.15
2022-11-25T01:56:04.081Z,100437.21
2022-11-25T01:58:42.494Z,100438.23
2022-11-25T02:01:12.214Z,100440.63
2022-11-25T02:03:47.866Z,100438.89
2022-11-25T02:06:29.040Z,100436.45
2022-11-25T02:09:09.420Z,100437.83
2022-11-25T02:11:44.140Z,100440.92
2022-11-25T02:14:17.187Z,100438.00
2022-11-25T02:16:48.695Z,100441.77
2022-11-25T02:19:37.261Z,100441.58
2022-11-25T02:22:12.245Z,100442.09
2022-11-25T02:24:48.921Z,100443.13
2022-11-25T02:27:19.683Z,100445.36
2022-11-25T02:29:52.509Z,100443.81
2022-11-25T02:32:26.816Z,100448.11
2022-11-25T02:34:56.063Z,100446.04
2022-11-25T02:37:25.724Z,100443.98
2022-11-25T02:39:56.007Z,100441.23
2022-11-25T02:42:29.297Z,100441.92
2022-11-25T02:45:01.136Z,100440.89
2022-11-25T02:47:30.532Z,100441.75
2022-11-25T02:50:02.434Z,100443.66
2022-11-25T02:52:31.971Z,100443.50
2022-11-25T02:55:03.460Z,100445.73
2022-11-25T02:57:32.664Z,100449.51
2022-11-25T03:00:01.959Z,100451.23
2022-11-25T03:02:31.310Z,100454.33
2022-11-25T03:05:06.121Z,100458.10
2022-11-25T03:07:37.500Z,100459.46
2022-11-25T03:10:08.407Z,100458.60
2022-11-25T03:12:42.449Z,100457.40
2022-11-25T03:15:12.366Z,100451.89
2022-11-25T03:17:42.303Z,100453.11
2022-11-25T03:20:14.542Z,100454.81
2022-11-25T03:22:44.285Z,100457.39
2022-11-25T03:25:15.027Z,100457.05
2022-11-25T03:27:45.345Z,100454.83
2022-11-25T03:30:25.138Z,100455.34
2022-11-25T03:32:56.547Z,100459.64
2022-11-25T03:35:28.001Z,100463.95
2022-11-25T03:38:00.039Z,100467.21
2022-11-25T03:40:29.223Z,100467.23
2022-11-25T03:42:58.199Z,100469.46
2022-11-25T03:45:27.367Z,100470.48
2022-11-25T03:48:01.286Z,100470.14
2022-11-25T03:50:30.436Z,100469.11
2022-11-25T03:53:07.593Z,100468.94
2022-11-25T03:55:41.727Z,100468.61
2022-11-25T03:58:14.017Z,100463.28
2022-11-25T04:00:44.190Z,100459.85
2022-11-25T04:03:13.554Z,100455.62
2022-11-25T04:05:42.892Z,100452.72
2022-11-25T04:08:14.420Z,100456.15
2022-11-25T04:10:50.793Z,100454.25
2022-11-25T04:13:23.105Z,100454.94
2022-11-25T04:15:52.967Z,100457.66
2022-11-25T04:18:22.383Z,100460.41
2022-11-25T04:20:54.293Z,100467.98
2022-11-25T04:23:23.488Z,100471.07
2022-11-25T04:25:58.275Z,100466.28
2022-11-25T04:28:33.362Z,100465.42
2022-11-25T04:31:08.171Z,100464.23
2022-11-25T04:33:38.811Z,100465.44
2022-11-25T04:36:09.220Z,100465.60
2022-11-25T04:38:44.633Z,100467.13
2022-11-25T04:41:17.228Z,100471.41
2022-11-25T04:43:47.241Z,100471.73
2022-11-25T04:46:28.494Z,100473.96
2022-11-25T04:49:05.064Z,100475.84
2022-11-25T04:51:35.619Z,100478.58
2022-11-25T04:54:06.565Z,100480.12
2022-11-25T04:56:36.233Z,100481.50
2022-11-25T04:59:24.223Z,100484.42
2022-11-25T05:01:53.365Z,100484.08
2022-11-25T05:04:34.722Z,100484.59
2022-11-25T05:07:06.833Z,100482.88
2022-11-25T05:09:37.383Z,100486.66
2022-11-25T05:12:22.997Z,100486.67
2022-11-25T05:14:56.710Z,100486.67
2022-11-25T05:17:31.243Z,100488.90
2022-11-25T05:20:04.884Z,100486.16
2022-11-25T05:22:37.886Z,100484.77
2022-11-25T05:25:11.058Z,100481.32
2022-11-25T05:27:50.144Z,100479.58
2022-11-25T05:30:22.414Z,100485.42
2022-11-25T05:32:51.805Z,100482.67
2022-11-25T05:35:22.076Z,100484.06
2022-11-25T05:37:51.180Z,100483.73
2022-11-25T05:40:20.330Z,100478.58
2022-11-25T05:43:04.031Z,100476.88
2022-11-25T05:45:39.743Z,100477.92
2022-11-25T05:48:15.756Z,100476.89
2022-11-25T05:50:45.117Z,100480.31
2022-11-25T05:53:18.518Z,100484.61
2022-11-25T05:55:58.081Z,100489.42
2022-11-25T05:58:57.688Z,100491.36
2022-11-25T06:01:30.123Z,100492.20
2022-11-25T06:04:04.739Z,100493.38
2022-11-25T06:06:34.019Z,100493.36
2022-11-25T06:09:05.231Z,100494.23
2022-11-25T06:11:35.374Z,100493.52
2022-11-25T06:14:04.505Z,100490.13
2022-11-25T06:16:36.461Z,100492.73
2022-11-25T06:19:17.375Z,100497.23
2022-11-25T06:21:51.729Z,100501.52
2022-11-25T06:24:30.624Z,100506.51
2022-11-25T06:27:03.591Z,100510.77
2022-11-25T06:29:32.906Z,100508.88
2022-11-25T06:32:06.008Z,100508.38
2022-11-25T06:34:49.759Z,100508.72
2022-11-25T06:37:33.695Z,100516.28
2022-11-25T06:40:03.919Z,100518.35
2022-11-25T06:42:33.845Z,100524.05
2022-11-25T06:45:03.020Z,100525.78
2022-11-25T06:47:32.733Z,100531.80
2022-11-25T06:50:01.885Z,100538.66
2022-11-25T06:52:43.538Z,100535.05
2022-11-25T06:55:13.556Z,100534.70
2022-11-25T06:57:47.970Z,100537.11
2022-11-25T07:00:22.468Z,100537.27
2022-11-25T07:02:55.969Z,100537.59
2022-11-25T07:05:26.084Z,100539.85
2022-11-25T07:07:59.044Z,100544.83
2022-11-25T07:10:32.655Z,100548.45
2022-11-25T07:13:03.924Z,100554.29
2022-11-25T07:15:35.310Z,100558.55
2022-11-25T07:18:04.776Z,100559.56
2022-11-25T07:20:36.512Z,100562.65
2022-11-25T07:23:05.748Z,100565.08
2022-11-25T07:25:38.656Z,100562.98
2022-11-25T07:28:07.617Z,100565.21
2022-11-25T07:33:27.873Z,100574.64
2022-11-25T07:35:57.126Z,100571.37
2022-11-25T07:38:32.232Z,100570.66
2022-11-25T07:41:13.696Z,100572.38
2022-11-25T07:44:00.611Z,100576.83
2022-11-25T07:46:44.056Z,100581.27
2022-11-25T07:49:18.381Z,100582.13
2022-11-25T07:51:59.914Z,100579.54
2022-11-25T07:54:29.208Z,100584.52
2022-11-25T07:56:58.368Z,100586.23
2022-11-25T07:59:27.869Z,100586.05
2022-11-25T08:01:57.106Z,100591.20
2022-11-25T08:04:26.304Z,100591.34
2022-11-25T08:06:55.471Z,100600.80
2022-11-25T08:09:27.204Z,100600.94
2022-11-25T08:11:56.481Z,100602.30
2022-11-25T08:14:31.148Z,100602.13
2022-11-25T08:17:05.776Z,100603.66
2022-11-25T08:19:40.706Z,100606.08
2022-11-25T08:22:10.399Z,100606.05
2022-11-25T08:24:40.085Z,100605.88
2022-11-25T08:27:12.186Z,100602.43
2022-11-25T08:29:46.055Z,100603.16
2022-11-25T08:32:23.488Z,100597.30
2022-11-25T08:34:53.862Z,100599.35
2022-11-25T08:37:26.513Z,100598.64
2022-11-25T08:40:14.686Z,100600.34
2022-11-25T08:42:44.367Z,100601.16
2022-11-25T08:45:13.737Z,100603.21
2022-11-25T08:47:42.944Z,100604.02
2022-11-25T08:50:15.083Z,100607.09
2022-11-25T08:52:44.412Z,100607.93
2022-11-25T08:55:16.891Z,100608.93
2022-11-25T08:57:52.829Z,100606.51
2022-11-25T09:00:23.223Z,100604.08
2022-11-25T09:02:52.760Z,100610.06
2022-11-25T09:05:24.332Z,100615.36
2022-11-25T09:08:13.307Z,100610.86
2022-11-25T09:10:42.817Z,100613.27
2022-11-25T09:13:14.325Z,100613.61
2022-11-25T09:15:46.425Z,100615.47
2022-11-25T09:18:22.517Z,100612.69
2022-11-25T09:20:56.152Z,100607.17
2022-11-25T09:23:31.190Z,100607.51
2022-11-25T09:26:01.849Z,100604.90
2022-11-25T09:28:42.699Z,100607.29
2022-11-25T09:31:40.824Z,100605.90
2022-11-25T09:34:12.067Z,100605.55
2022-11-25T09:36:46.625Z,100612.09
2022-11-25T09:39:16.121Z,100613.44
2022-11-25T09:42:41.103Z,100614.80
2022-11-25T09:46:05.533Z,100614.27
2022-11-25T09:49:20.554Z,100615.69
2022-11-25T09:52:44.180Z,100611.72
2022-11-25T09:55:24.081Z,100614.78
2022-11-25T09:58:31.349Z,100609.59
2022-11-25T10:01:10.145Z,100610.58
2022-11-25T10:04:00.181Z,100611.59
2022-11-25T10:06:52.059Z,100611.20
2022-11-25T10:09:36.538Z,100613.08
2022-11-25T10:12:35.176Z,100612.18
2022-11-25T10:15:53.115Z,100613.73
2022-11-25T10:18:50.533Z,100619.08
2022-11-25T10:21:23.408Z,100619.91
2022-11-25T10:23:52.782Z,100615.56
2022-11-25T10:26:38.460Z,100612.09
2022-11-25T10:29:13.871Z,100608.13
2022-11-25T10:31:57.064Z,100602.95
2022-11-25T10:34:42.323Z,100603.77
2022-11-25T10:37:56.287Z,100602.86
2022-11-25T10:40:28.670Z,100600.73
2022-11-25T10:43:05.252Z,100601.52
2022-11-25T10:45:47.448Z,100596.80
2022-11-25T10:49:08.020Z,100601.25
2022-11-25T10:51:50.180Z,100596.91
2022-11-25T10:54:58.944Z,100598.75
2022-11-25T10:57:32.163Z,100595.48
2022-11-25T11:00:35.375Z,100599.98
2022-11-25T11:03:28.845Z,100609.95
2022-11-25T11:06:03.667Z,100611.95
2022-11-25T11:08:47.200Z,100612.74
2022-11-25T11:11:24.339Z,100607.67
2022-11-25T11:14:19.547Z,100611.95
2022-11-25T11:16:57.440Z,100614.14
2022-11-25T11:19:30.381Z,100614.96
2022-11-25T11:22:27.987Z,100619.25
2022-11-25T11:25:35.819Z,100621.33
2022-11-25T11:28:37.316Z,100623.23
2022-11-25T11:31:18.326Z,100626.50
2022-11-25T11:33:47.553Z,100623.38
2022-11-25T11:36:44.735Z,100624.23
2022-11-25T11:39:21.029Z,100623.23
2022-11-25T11:42:03.455Z,100617.88
2022-11-25T11:45:01.986Z,100613.61
2022-11-25T11:48:05.289Z,100613.29
2022-11-25T11:50:52.367Z,100613.83
2022-11-25T11:53:50.228Z,100613.34
2022-11-25T11:56:50.638Z,100620.63
2022-11-25T12:00:00.166Z,100625.27
2022-11-25T12:02:44.028Z,100624.54
2022-11-25T12:05:21.212Z,100626.55
2022-11-25T12:08:18.203Z,100625.83
2022-11-25T12:10:57.717Z,100622.34
2022-11-25T12:14:02.547Z,100625.00
2022-11-25T12:16:40.872Z,100628.14
2022-11-25T12:20:09.917Z,100627.91
2022-11-25T12:23:04.284Z,100632.70
2022-11-25T12:25:39.427Z,100635.41
2022-11-25T12:28:30.999Z,100638.80
2022-11-25T12:31:12.096Z,100636.49
2022-11-25T12:34:04.400Z,100638.18
2022-11-25T12:36:46.813Z,100637.29
2022-11-25T12:39:46.619Z,100634.34
2022-11-25T12:42:26.538Z,100635.68
2022-11-25T12:45:01.209Z,100630.81
2022-11-25T12:47:53.648Z,100626.79
2022-11-25T12:51:14.566Z,100626.00
2022-11-25T12:54:07.163Z,100623.52
2022-11-25T12:57:08.460Z,100623.08
2022-11-25T13:00:40.663Z,100622.16
2022-11-25T13:03:51.494Z,100622.81
2022-11-25T13:07:13.108Z,100630.03
2022-11-25T13:10:14.440Z,100629.16
2022-11-25T13:13:05.304Z,100628.61
2022-11-25T13:15:49.116Z,100632.03
2022-11-25T13:18:26.224Z,100629.25
2022-11-25T13:21:08.715Z,100626.64
2022-11-25T13:23:49.944Z,100627.82
2022-11-25T13:26:33.995Z,100632.45
2022-11-25T13:29:29.468Z,100628.48
2022-11-25T13:32:31.427Z,100633.27
2022-11-25T13:35:38.168Z,100632.60
2022-11-25T13:38:30.636Z,100639.24
2022-11-25T13:41:22.327Z,100639.76
2022-11-25T13:44:10.482Z,100642.66
2022-11-25T13:46:44.392Z,100647.45
2022-11-25T13:49:51.797Z,100646.03
2022-11-25T13:52:34.566Z,100650.49
2022-11-25T13:55:33.794Z,100651.35
2022-11-25T13:58:24.257Z,100655.83
2022-11-25T14:01:29.958Z,100657.55
2022-11-25T14:04:01.163Z,100657.41
2022-11-25T14:06:52.798Z,100654.83
2022-11-25T14:09:35.501Z,100659.98
2022-11-25T14:12:40.852Z,100660.77
2022-11-25T14:16:06.921Z,100660.88
2022-11-25T14:19:43.299Z,100662.66
2022-11-25T14:22:35.931Z,100666.64
2022-11-25T14:25:19.184Z,100668.00
2022-11-25T14:28:03.648Z,100666.93
2022-11-25T14:30:53.588Z,100664.67
2022-11-25T14:33:35.922Z,100668.46
2022-11-25T14:36:15.876Z,100670.21
2022-11-25T14:39:00.002Z,100674.19
2022-11-25T14:42:10.126Z,100670.02
2022-11-25T14:44:58.503Z,100673.77
2022-11-25T14:47:39.213Z,100677.73
2022-11-25T14:50:34.162Z,100682.21
2022-11-25T14:53:14.951Z,100680.83
2022-11-25T14:55:49.146Z,100679.75
2022-11-25T14:58:20.662Z,100680.60
2022-11-25T15:00:58.170Z,100682.01
2022-11-25T15:03:34.231Z,100683.21
2022-11-25T15:06:07.097Z,100683.21
2022-11-25T15:08:56.113Z,100686.83
2022-11-25T15:11:31.732Z,100684.59
2022-11-25T15:14:07.183Z,100686.16
2022-11-25T15:16:44.904Z,100683.23
2022-11-25T15:19:21.124Z,100683.04
2022-11-25T15:24:58.664Z,100682.84
2022-11-25T15:27:33.369Z,100684.25
2022-11-25T15:30:22.152Z,100686.21
2022-11-25T15:32:55.331Z,100688.49
2022-11-25T15:35:27.369Z,100692.27
2022-11-25T15:37:58.649Z,100692.98
2022-11-25T15:40:43.177Z,100699.77
2022-11-25T15:43:31.945Z,100701.68
2022-11-25T15:46:14.988Z,100701.48
2022-11-25T15:48:50.229Z,100699.71
2022-11-25T15:51:36.164Z,100702.26
2022-11-25T15:54:19.937Z,100704.15
2022-11-25T15:57:16.264Z,100703.11
2022-11-25T15:59:52.642Z,100699.16
2022-11-25T16:02:34.969Z,100699.83
2022-11-25T16:05:16.337Z,100701.58
2022-11-25T16:07:50.863Z,100702.77
2022-11-25T16:10:23.090Z,100700.66
2022-11-25T16:13:22.199Z,100704.96
2022-11-25T16:16:02.884Z,100706.48
2022-11-25T16:18:42.513Z,100714.79
2022-11-25T16:21:23.580Z,100719.10
2022-11-25T16:24:11.704Z,100714.77
2022-11-25T16:26:54.186Z,100714.77
2022-11-25T16:29:56.816Z,100717.00
2022-11-25T16:32:33.505Z,100716.33
2022-11-25T16:35:20.689Z,100718.39
2022-11-25T16:37:49.930Z,100715.09
2022-11-25T16:40:19.353Z,100714.36
2022-11-25T16:42:50.379Z,100718.99
2022-11-25T16:45:26.475Z,100721.73
2022-11-25T16:47:56.810Z,100725.39
2022-11-25T16:50:25.767Z,100727.82
2022-11-25T16:52:56.087Z,100727.81
2022-11-25T16:55:26.710Z,100728.83
2022-11-25T16:57:55.695Z,100724.99
2022-11-25T17:00:27.009Z,100723.08
2022-11-25T17:02:56.231Z,100723.06
2022-11-25T17:05:29.079Z,100723.92
2022-11-25T17:07:58.422Z,100724.10
2022-11-25T17:10:27.721Z,100723.23
2022-11-25T17:12:59.234Z,100721.13
2022-11-25T17:15:42.328Z,100722.67
2022-11-25T17:18:15.408Z,100723.02
2022-11-25T17:20:46.146Z,100728.04
2022-11-25T17:23:22.430Z,100727.86
2022-11-25T17:25:56.621Z,100732.17
2022-11-25T17:28:28.346Z,100737.34
2022-11-25T17:30:57.568Z,100739.05
2022-11-25T17:33:28.284Z,100741.29
2022-11-25T17:35:58.941Z,100739.53
2022-11-25T17:38:30.417Z,100741.23
2022-11-25T17:41:01.301Z,100747.78
2022-11-25T17:43:34.837Z,100752.08
2022-11-25T17:46:16.141Z,100757.76
2022-11-25T17:48:48.817Z,100759.83
2022-11-25T17:51:20.945Z,100763.63
2022-11-25T17:53:50.067Z,100763.80
2022-11-25T17:56:30.171Z,100761.57
2022-11-25T17:59:06.598Z,100760.02
2022-11-25T18:01:39.142Z,100763.66
2022-11-25T18:04:25.719Z,100764.98
2022-11-25T18:07:05.395Z,100763.80
2022-11-25T18:09:38.862Z,100760.65
2022-11-25T18:12:28.223Z,100761.14
2022-11-25T18:14:57.809Z,100766.35
2022-11-25T18:17:26.893Z,100764.41
2022-11-25T18:19:58.851Z,100764.89
2022-11-25T18:22:30.630Z,100767.17
2022-11-25T18:25:10.780Z,100768.38
2022-11-25T18:27:59.951Z,100766.19
2022-11-25T18:30:38.632Z,100768.83
2022-11-25T18:33:16.257Z,100769.59
2022-11-25T18:35:59.594Z,100774.27
2022-11-25T18:38:28.935Z,100777.02
2022-11-25T18:41:24.761Z,100769.59
2022-11-25T18:44:33.200Z,100772.37
2022-11-25T18:47:28.369Z,100781.66
2022-11-25T18:50:31.938Z,100781.69
2022-11-25T18:53:13.831Z,100785.33
2022-11-25T18:55:47.861Z,100782.02
2022-11-25T18:58:28.422Z,100782.20
2022-11-25T19:01:17.852Z,100779.59
2022-11-25T19:04:00.427Z,100778.23
2022-11-25T19:06:36.050Z,100775.98
2022-11-25T19:09:08.611Z,100772.90
2022-11-25T19:12:01.135Z,100780.78
2022-11-25T19:14:56.993Z,100775.67
2022-11-25T19:17:28.460Z,100774.41
2022-11-25T19:20:01.916Z,100780.55
2022-11-25T19:22:38.208Z,100777.84
2022-11-25T19:25:10.739Z,100778.73
2022-11-25T19:27:45.703Z,100782.17
2022-11-25T19:30:18.812Z,100787.58
2022-11-25T19:32:50.524Z,100787.74
2022-11-25T19:35:35.828Z,100786.00
2022-11-25T19:38:28.558Z,100792.53
2022-11-25T19:40:58.063Z,100798.57
2022-11-25T19:43:27.867Z,100799.77
2022-11-25T19:45:59.129Z,100802.67
2022-11-25T19:48:38.813Z,100802.30
2022-11-25T19:51:09.529Z,100799.55
2022-11-25T19:53:49.394Z,100799.36
2022-11-25T19:56:27.064Z,100798.16
2022-11-25T19:59:09.582Z,100792.98
2022-11-25T20:01:46.413Z,100789.22
2022-11-25T20:04:22.735Z,100793.44
2022-11-25T20:06:51.900Z,100799.17
2022-11-25T20:09:21.100Z,100806.45
2022-11-25T20:11:56.463Z,100811.62
2022-11-25T20:14:25.923Z,100819.55
2022-11-25T20:16:54.976Z,100822.80
2022-11-25T20:19:24.022Z,100827.28
2022-11-25T20:21:54.311Z,100833.66
2022-11-25T20:24:27.229Z,100833.81
2022-11-25T20:26:59.416Z,100833.79
2022-11-25T20:29:31.173Z,100836.52
2022-11-25T20:32:34.734Z,100837.73
2022-11-25T20:35:11.463Z,100838.58
2022-11-25T20:37:51.407Z,100839.43
2022-11-25T20:40:33.224Z,100844.45
2022-11-25T20:43:20.992Z,100845.51
2022-11-25T20:45:53.870Z,100850.16
2022-11-25T20:48:25.675Z,100856.04
2022-11-25T20:51:02.105Z,100853.95
2022-11-25T20:53:32.498Z,100853.93
2022-11-25T20:56:04.138Z,100854.61
2022-11-25T20:58:50.843Z,100856.69
2022-11-25T21:01:24.041Z,100860.88
2022-11-25T21:03:54.219Z,100857.45
2022-11-25T21:06:52.510Z,100857.14
2022-11-25T21:09:34.630Z,100858.02
2022-11-25T21:12:19.577Z,100858.58
2022-11-25T21:14:51.635Z,100864.48
2022-11-25T21:17:21.574Z,100870.20
2022-11-25T21:19:55.059Z,100869.36
2022-11-25T21:22:29.574Z,100876.14
2022-11-25T21:25:01.117Z,100879.47
2022-11-25T21:27:32.997Z,100882.45
2022-11-25T21:30:37.524Z,100878.66
2022-11-25T21:33:21.441Z,100874.56
2022-11-25T21:36:08.658Z,100875.97
2022-11-25T21:38:53.026Z,100874.13
2022-11-25T21:42:12.197Z,100881.09
2022-11-25T21:44:52.634Z,100886.00
2022-11-25T21:47:29.982Z,100889.64
2022-11-25T21:50:18.604Z,100890.64
2022-11-25T21:53:18.731Z,100890.63
2022-11-25T21:56:51.016Z,100890.98
2022-11-25T22:00:02.519Z,100896.86
2022-11-25T22:02:46.087Z,100896.72
2022-11-25T22:05:30.649Z,100902.72
2022-11-25T22:09:04.081Z,100904.59
2022-11-25T22:11:41.306Z,100907.19
2022-11-25T22:14:40.495Z,100903.73
2022-11-25T22:17:18.241Z,100903.36
2022-11-25T22:19:47.782Z,100903.20
2022-11-25T22:22:18.079Z,100902.71
2022-11-25T22:24:48.969Z,100903.14
2022-11-25T22:27:28.723Z,100907.36
2022-11-25T22:30:00.001Z,100913.83
2022-11-25T22:32:29.331Z,100919.71
2022-11-25T22:35:01.066Z,100923.29
2022-11-25T22:37:31.616Z,100922.40
2022-11-25T22:40:00.813Z,100925.65
2022-11-25T22:42:32.813Z,100930.65
2022-11-25T22:45:04.720Z,100930.63
2022-11-25T22:47:41.917Z,100931.89
2022-11-25T22:50:27.720Z,100936.71
2022-11-25T22:52:58.345Z,100939.98
2022-11-25T22:55:32.172Z,100939.61
2022-11-25T22:58:04.922Z,100939.93
2022-11-25T23:00:42.803Z,100946.14
2022-11-25T23:03:20.090Z,100945.10
2022-11-25T23:05:51.659Z,100941.98
2022-11-25T23:08:32.010Z,100943.37
2022-11-25T23:11:01.328Z,100944.25
2022-11-25T23:13:31.377Z,100945.98
2022-11-25T23:16:04.682Z,100949.08
2022-11-25T23:18:39.846Z,100949.57
2022-11-25T23:21:23.618Z,100949.08
2022-11-25T23:23:53.003Z,100952.89
2022-11-25T23:26:29.861Z,100954.79
2022-11-25T23:29:05.940Z,100955.14
2022-11-25T23:31:38.543Z,100956.15
2022-11-25T23:34:11.923Z,100955.98
2022-11-25T23:36:47.503Z,100957.01
2022-11-25T23:39:26.684Z,100958.39
2022-11-25T23:41:56.444Z,100957.70
2022-11-25T23:44:31.124Z,100961.14
2022-11-25T23:47:06.752Z,100959.07
2022-11-25T23:49:44.668Z,100963.39
2022-11-25T23:52:22.879Z,100957.52
2022-11-25T23:54:53.406Z,100956.14
2022-11-25T23:57:31.659Z,100957.01
